EDDMDTTD

Guest
Details From EDDM - Muenchen Franz-josef Strauss
To DTTD - Remada
Flight Number -
Tags Generated
Created
Modified
Stats Distance 966 nm / 1,788 km
Max Altitude 0 ft / 0 m
Waypoints 4
Social Downloads 1
Likes 0
Share VATSIM

Download

Looking for another format? Having issues loading an existing format? Contact us
Advertisement - Login to hide

Notes

Generated

Route

EDDM BOA53 REMDA DTTD

ID Type Via Altitude Latitude Longitude Leg Dist Tot Dist Heading (true) Name
O EDDM APT - 0 ft / 0 m 48.34069˚ 11.75108˚ - 0 nm - -
BOA53 FIX - 0 ft / 0 m 44.60611˚ 11.36857˚ 224 nm 224 nm 184° / 184° -
REMDA FIX - 0 ft / 0 m 32.29611˚ 10.37611˚ 740 nm 965 nm 184° / 183° -
O DTTD APT - 0 ft / 0 m 32.29625˚ 10.37721˚ 0 nm 965 nm 81° / 81° -

Altitude Profile

Advertisement - Login to hide

Weather


0- 5 10 15 20 25 30 35+ Temperature / ° C

Clouds and Precipitation
Forecast for 2017-12-16 18:00 UTC. Updated 11 minutes ago

Ground ~20,000 ft ~40,000 ft Winds

EDDM

Details ICAO EDDM (MUC)
Name Muenchen Franz-Josef Strauss
Region Germany - Civil
Timezone Europe/Berlin (UTC+1.0)
Stats Elevation 1,487 ft / 453 m (AMSL)
Location 48.353786° 11.786117°
Runways 2
Magnetic Variation 3.162° E

METAR

EDDM 161320Z 28011KT 9000 -SHSNRA FEW006 SCT009TCU BKN014 02/00 Q1009 TEMPO 2000 SHSN BKN008

Decode

TAF

TAF EDDM 161100Z 1612/1718 27008KT 8000 SCT012 BKN020 TEMPO 1612/1712 4000 -SN BKN006 PROB40 TEMPO 1612/1618 2500 SHSN BKN008TCU PROB40 TEMPO 1703/1712 2000 SHSN BKN008TCU

Decode

Departure Runways

ID Width Length Bearing (true) Bearing (mag) Surface Threshold Offset Overrun Length
08L 197 ft / 60 m 13,086 ft / 3,989 m 83.38° 80.22° Concrete 0 ft / 0 m 0 ft / 0 m
08R 197 ft / 60 m 13,086 ft / 3,989 m 83.37° 80.21° Concrete 0 ft / 0 m 0 ft / 0 m
26L 197 ft / 60 m 13,086 ft / 3,989 m 263.41° 260.25° Concrete 0 ft / 0 m 0 ft / 0 m
26R 197 ft / 60 m 13,086 ft / 3,989 m 263.42° 260.26° Concrete 0 ft / 0 m 0 ft / 0 m

DTTD

Details ICAO DTTD
Name REMADA
Region Tunisia
Timezone Africa/Tunis (UTC+1.0)
Stats Elevation 1,004 ft / 306 m (AMSL)
Location 32.306146° 10.382098°
Runways 1
Magnetic Variation 2.166° E

METAR

DTTD 161300Z 28009KT 210V320 9999 SCT023 15/10 Q1013

Decode

TAF

Not found

Destination Runways

ID Width Length Bearing (true) Bearing (mag) Surface Threshold Offset Overrun Length
02 148 ft / 45 m 7,827 ft / 2,386 m 22.67° 20.50° Asphalt 0 ft / 0 m 0 ft / 0 m
20 148 ft / 45 m 7,827 ft / 2,386 m 202.67° 200.50° Asphalt 0 ft / 0 m 0 ft / 0 m